Time;durP1;ratioP1;P1;durP2;ratioP2;P2;SDS_P1;SDS_P2;PMS_P1;PMS_P2;Temp;Humidity;BMP_temperature;BMP_pressure;BME280_temperature;BME280_humidity;BME280_pressure;Samples;Min_cycle;Max_cycle;Signal;HPM_P1;HPM_P2
2022/12/15 00:41:36;;;;;;;;;;;;;;;-1.05;100.00;99427.03;5590490;31;34177;-69
2022/12/15 00:44:45;;;;;;;;;;;;;;;-1.07;100.00;99435.91;5590428;31;34479;-69
2022/12/15 00:47:53;;;;;;;;;;;;;;;-1.03;100.00;99432.97;5590452;31;34916;-69
2022/12/15 00:51:00;;;;;;;;;;;;;;;-1.06;100.00;99420.16;5589554;31;34933;-69
2022/12/15 01:21:36;;;;;;;;;;;;;;;-0.77;100.00;99430.91;5590219;31;34211;-69
2022/12/15 01:24:44;;;;;;;;;;;;;;;-0.79;100.00;99438.03;5590302;31;34469;-70
2022/12/15 01:27:52;;;;;;;;;;;;;;;-0.71;100.00;99429.63;5590223;31;34856;-70
2022/12/15 01:31:00;;;;;;;;;;;;;;;-0.69;100.00;99438.97;5590377;31;34545;-70
2022/12/15 01:34:08;;;;;;;;;;;;;;;-0.74;100.00;99432.47;5590170;31;34712;-70
2022/12/15 01:37:17;;;;;;;;;;;;;;;-0.69;100.00;99435.53;5590121;31;34796;-69
2022/12/15 01:43:48;;;;;;;;;;;;;;;-0.76;100.00;99439.56;5590483;31;34797;-69
2022/12/15 01:46:55;;;;;;;;;;;;;;;-0.84;100.00;99441.94;5590155;31;35022;-69
2022/12/15 01:50:03;;;;;;;;;;;;;;;-0.98;100.00;99430.81;5589866;31;34462;-69
2022/12/15 01:53:11;;;;;;;;;;;;;;;-0.83;100.00;99434.03;5589993;31;34847;-69
2022/12/15 01:56:19;;;;;;;;;;;;;;;-0.92;100.00;99430.34;5589945;31;34480;-70
2022/12/15 01:59:29;;;;;;;;;;;;;;;-1.07;100.00;99417.69;5590060;31;34784;-69
2022/12/15 02:02:38;;;;;;;;;;;;;;;-1.16;100.00;99429.59;5575419;31;34405;-70
2022/12/15 02:05:47;;;;;;;;;;;;;;;-1.07;100.00;99439.34;5589856;31;34293;-69
2022/12/15 02:08:54;;;;;;;;;;;;;;;-0.94;100.00;99440.06;5589777;31;34030;-69
2022/12/15 02:12:12;;;;;;;;;;;;;;;-0.93;100.00;99435.69;5589782;31;34309;-69
2022/12/15 02:15:25;;;;;;;;;;;;;;;-1.05;100.00;99421.81;5589774;31;34327;-69
2022/12/15 02:18:45;;;;;;;;;;;;;;;-0.95;100.00;99427.97;5589763;31;34361;-70
2022/12/15 02:21:58;;;;;;;;;;;;;;;-0.86;100.00;99431.63;5589402;31;34565;-70
2022/12/15 02:25:23;;;;;;;;;;;;;;;-0.96;100.00;99439.34;5589738;31;34761;-70
2022/12/15 02:28:42;;;;;;;;;;;;;;;-0.81;100.00;99436.50;5589529;31;34314;-70
2022/12/15 02:31:52;;;;;;;;;;;;;;;-0.88;100.00;99433.56;5589581;31;34277;-70
2022/12/15 02:35:01;;;;;;;;;;;;;;;-0.94;100.00;99429.63;5589475;31;34875;-70
2022/12/15 02:38:08;;;;;;;;;;;;;;;-1.08;100.00;99426.44;5589468;31;34942;-70
2022/12/15 02:41:31;;;;;;;;;;;;;;;-0.98;100.00;99430.81;5589299;31;34828;-70
2022/12/15 02:44:42;;;;;;;;;;;;;;;-0.83;100.00;99434.03;5576381;31;34677;-70
2022/12/15 02:47:55;;;;;;;;;;;;;;;-0.96;100.00;99447.13;5589218;31;34593;-70
2022/12/15 02:51:05;;;;;;;;;;;;;;;-1.09;100.00;99445.59;5589149;31;34912;-70
2022/12/15 02:54:14;;;;;;;;;;;;;;;-1.12;100.00;99440.62;5589111;31;34913;-70
2022/12/15 02:57:28;;;;;;;;;;;;;;;-1.13;100.00;99446.78;5575819;31;34247;-70
2022/12/15 03:00:37;;;;;;;;;;;;;;;-1.09;100.00;99453.41;5589023;31;34269;-70
2022/12/15 03:03:45;;;;;;;;;;;;;;;-1.12;100.00;99449.28;5588734;31;34909;-70
2022/12/15 03:06:55;;;;;;;;;;;;;;;-0.95;100.00;99448.81;5588679;31;34884;-70
2022/12/15 03:10:06;;;;;;;;;;;;;;;-0.89;100.00;99448.34;5588796;31;34993;-70
2022/12/15 03:13:11;;;;;;;;;;;;;;;-0.89;100.00;99456.16;5574791;31;32785;-70
2022/12/15 03:16:22;;;;;;;;;;;;;;;-1.16;100.00;99466.03;5591728;31;34386;-70
2022/12/15 03:19:30;;;;;;;;;;;;;;;-1.24;100.00;99460.59;5591426;31;34263;-70
2022/12/15 03:22:36;;;;;;;;;;;;;;;-1.11;100.00;99457.88;5591228;31;34264;-70
2022/12/15 03:25:43;;;;;;;;;;;;;;;-1.11;100.00;99465.69;5591185;31;34611;-69
2022/12/15 03:28:54;;;;;;;;;;;;;;;-1.21;100.00;99467.37;5578192;31;34348;-70
2022/12/15 03:32:01;;;;;;;;;;;;;;;-1.13;100.00;99472.81;5577811;31;34735;-69
2022/12/15 03:35:09;;;;;;;;;;;;;;;-1.15;100.00;99474.69;5591158;31;34015;-69
2022/12/15 03:38:16;;;;;;;;;;;;;;;-0.99;100.00;99476.03;5591147;31;34589;-70
2022/12/15 03:41:25;;;;;;;;;;;;;;;-0.95;100.00;99477.44;5591061;31;34280;-70
2022/12/15 03:44:33;;;;;;;;;;;;;;;-0.97;100.00;99463.69;5590975;31;34698;-70
2022/12/15 03:47:43;;;;;;;;;;;;;;;-1.13;100.00;99457.19;5591005;31;34333;-71
2022/12/15 03:50:50;;;;;;;;;;;;;;;-1.15;100.00;99454.69;5591022;31;34292;-69
2022/12/15 03:53:58;;;;;;;;;;;;;;;-1.17;100.00;99463.56;5591150;31;34267;-70
2022/12/15 03:57:04;;;;;;;;;;;;;;;-1.11;100.00;99476.94;5590848;31;34501;-70
2022/12/15 04:00:10;;;;;;;;;;;;;;;-1.17;100.00;99474.81;5590937;31;34336;-69
2022/12/15 04:03:16;;;;;;;;;;;;;;;-1.14;100.00;99473.75;5590662;31;34860;-70
2022/12/15 04:06:23;;;;;;;;;;;;;;;-1.28;100.00;99484.38;5590841;31;34241;-70
2022/12/15 04:09:30;;;;;;;;;;;;;;;-1.16;100.00;99491.25;5590868;31;34354;-69
2022/12/15 04:12:38;;;;;;;;;;;;;;;-1.25;100.00;99494.53;5590919;31;34161;-69
2022/12/15 04:15:45;;;;;;;;;;;;;;;-1.18;100.00;99487.94;5590812;31;34610;-71
2022/12/15 04:20:07;;;;;;;;;;;;;;;-1.33;100.00;99489.91;5590794;31;34202;-70
2022/12/15 04:22:20;;;;;;;;;;;;;;;-1.40;100.00;99486.94;5590630;31;34861;-70
2022/12/15 05:34:08;;;;;;;;;;;;;;;-1.00;100.00;99590.66;5590288;31;34430;-71
2022/12/15 05:37:15;;;;;;;;;;;;;;;-1.04;100.00;99589.22;5589364;31;34572;-70
2022/12/15 05:40:22;;;;;;;;;;;;;;;-0.82;100.00;99612.72;5589906;31;34334;-70
2022/12/15 05:43:29;;;;;;;;;;;;;;;-0.79;100.00;99603.88;5576540;31;34309;-71
2022/12/15 05:46:36;;;;;;;;;;;;;;;-0.86;100.00;99600.88;5590038;31;34371;-71
2022/12/15 05:49:44;;;;;;;;;;;;;;;-0.93;100.00;99615.31;5589984;31;34190;-71
2022/12/15 05:52:49;;;;;;;;;;;;;;;-0.85;100.00;99617.34;5589806;31;33870;-71
2022/12/15 05:56:00;;;;;;;;;;;;;;;-0.75;100.00;99633.94;5575823;31;34209;-70
2022/12/15 05:59:05;;;;;;;;;;;;;;;-0.62;100.00;99645.09;5589762;31;34310;-70
2022/12/15 06:02:13;;;;;;;;;;;;;;;-0.64;100.00;99652.19;5576627;31;34854;-70
2022/12/15 06:05:19;;;;;;;;;;;;;;;-0.48;100.00;99657.91;5589806;31;34154;-71
2022/12/15 06:08:26;;;;;;;;;;;;;;;-0.49;100.00;99666.69;5589685;31;34369;-71
2022/12/15 06:11:29;;;;;;;;;;;;;;;-0.56;100.00;99673.28;5575535;31;35541;-71
2022/12/15 06:14:33;;;;;;;;;;;;;;;-0.71;100.00;99672.66;5589665;31;34310;-70
2022/12/15 06:17:36;;;;;;;;;;;;;;;-0.74;100.00;99672.06;5589673;31;34784;-71
2022/12/15 06:20:42;;;;;;;;;;;;;;;-0.70;100.00;99679.53;5590694;31;34375;-69
2022/12/15 06:23:52;;;;;;;;;;;;;;;-0.57;100.00;99687.25;5589382;31;34443;-70
2022/12/15 06:26:58;;;;;;;;;;;;;;;-0.50;100.00;99684.09;5589550;31;34559;-70
2022/12/15 06:30:02;;;;;;;;;;;;;;;-0.52;100.00;99690.34;5576164;31;34817;-71
2022/12/15 06:33:06;;;;;;;;;;;;;;;-0.51;100.00;99699.81;5589337;31;34182;-70
2022/12/15 06:36:13;;;;;;;;;;;;;;;-0.48;100.00;99703.03;5589295;31;34948;-70
2022/12/15 06:39:19;;;;;;;;;;;;;;;-0.45;100.00;99720.22;5589474;31;35684;-70
2022/12/15 06:42:24;;;;;;;;;;;;;;;-0.49;100.00;99719.63;5589279;31;34296;-70
2022/12/15 06:45:27;;;;;;;;;;;;;;;-0.64;100.00;99704.28;5588866;31;34969;-70
2022/12/15 06:48:31;;;;;;;;;;;;;;;-0.52;100.00;99709.41;5573901;31;34260;-71
2022/12/15 06:51:33;;;;;;;;;;;;;;;-0.44;100.00;99712.28;5588990;31;34891;-72
2022/12/15 06:54:37;;;;;;;;;;;;;;;-0.38;100.00;99715.38;5589245;31;34143;-71
2022/12/15 06:57:40;;;;;;;;;;;;;;;-0.32;100.00;99720.13;5574876;31;35275;-71
2022/12/15 07:00:45;;;;;;;;;;;;;;;-0.30;100.00;99745.16;5588756;31;34703;-70
2022/12/15 07:03:49;;;;;;;;;;;;;;;-0.31;100.00;99740.03;5574870;31;34917;-69
2022/12/15 07:06:52;;;;;;;;;;;;;;;-0.45;100.00;99733.25;5588064;31;34641;-71
2022/12/15 07:09:56;;;;;;;;;;;;;;;-0.51;100.00;99729.31;5587891;31;34660;-70
2022/12/15 07:13:00;;;;;;;;;;;;;;;-0.33;100.00;99744.53;5588583;31;34753;-70
2022/12/15 07:16:05;;;;;;;;;;;;;;;-0.24;100.00;99759.50;5588697;31;34498;-70
2022/12/15 07:19:11;;;;;;;;;;;;;;;-0.28;100.00;99750.22;5589031;31;34640;-70
2022/12/15 07:22:15;;;;;;;;;;;;;;;-0.31;100.00;99753.06;5588130;31;34810;-70
2022/12/15 07:25:20;;;;;;;;;;;;;;;0.03;100.00;99764.41;5588373;31;34715;-69
2022/12/15 07:28:23;;;;;;;;;;;;;;;-0.08;100.00;99765.19;5574653;31;34427;-69
2022/12/15 07:31:30;;;;;;;;;;;;;;;-0.10;100.00;99777.53;5588301;31;34755;-69
2022/12/15 07:34:34;;;;;;;;;;;;;;;0.29;100.00;99789.34;5587809;31;34988;-70
2022/12/15 07:37:39;;;;;;;;;;;;;;;0.43;100.00;99776.06;5587785;31;34357;-70
2022/12/15 07:40:42;;;;;;;;;;;;;;;0.28;100.00;99778.06;5587876;31;34840;-69
2022/12/15 07:43:46;;;;;;;;;;;;;;;0.18;100.00;99789.31;5588101;31;34975;-70
2022/12/15 07:46:50;;;;;;;;;;;;;;;0.45;100.00;99787.19;5587908;31;34803;-70
2022/12/15 07:49:54;;;;;;;;;;;;;;;0.50;100.00;99792.91;5588025;31;34703;-70
2022/12/15 07:52:57;;;;;;;;;;;;;;;0.40;100.00;99790.16;5588025;31;34240;-70
2022/12/15 07:56:00;;;;;;;;;;;;;;;0.25;100.00;99782.69;5587780;31;34939;-70
2022/12/15 07:59:13;;;;;;;;;;;;;;;0.23;100.00;99787.19;5588078;31;34498;-70
2022/12/15 08:02:16;;;;;;;;;;;;;;;0.23;100.00;99793.25;5563864;31;34258;-70
2022/12/15 08:05:20;;;;;;;;;;;;;;;0.48;100.00;99805.25;5590523;31;34969;-69
2022/12/15 08:08:22;;;;;;;;;;;;;;;0.75;100.00;99797.88;5577016;31;34901;-69
2022/12/15 08:11:26;;;;;;;;;;;;;;;0.77;100.00;99797.78;5590784;31;34361;-70
2022/12/15 08:14:31;;;;;;;;;;;;;;;0.97;100.00;99798.81;5590807;31;34858;-70
2022/12/15 08:17:34;;;;;;;;;;;;;;;0.91;100.00;99810.56;5590813;31;34131;-69
2022/12/15 08:20:38;;;;;;;;;;;;;;;0.96;100.00;99831.94;5590743;31;33171;-69
2022/12/15 08:23:43;;;;;;;;;;;;;;;1.09;100.00;99832.63;5590554;31;34294;-69
2022/12/15 08:26:48;;;;;;;;;;;;;;;1.39;100.00;99841.59;5590557;31;34757;-69
2022/12/15 08:29:54;;;;;;;;;;;;;;;1.54;100.00;99846.44;5590517;31;34369;-69
2022/12/15 08:32:58;;;;;;;;;;;;;;;1.69;100.00;99849.59;5576829;31;35043;-69
2022/12/15 08:36:03;;;;;;;;;;;;;;;1.68;100.00;99846.16;5590585;31;34480;-70
2022/12/15 08:39:06;;;;;;;;;;;;;;;1.41;100.00;99857.97;5590562;31;34898;-70
2022/12/15 08:42:10;;;;;;;;;;;;;;;1.39;100.00;99854.66;5590705;31;34419;-70
2022/12/15 08:45:13;;;;;;;;;;;;;;;1.17;100.00;99850.28;5576801;31;34109;-69
2022/12/15 08:48:16;;;;;;;;;;;;;;;1.07;100.00;99847.56;5590443;31;33714;-69
2022/12/15 08:51:22;;;;;;;;;;;;;;;1.36;100.00;99853.09;5590349;31;34605;-70
2022/12/15 08:54:26;;;;;;;;;;;;;;;1.66;100.00;99855.87;5590048;31;34930;-70
2022/12/15 08:57:29;;;;;;;;;;;;;;;1.82;100.00;99872.94;5590325;31;34211;-70
2022/12/15 09:00:32;;;;;;;;;;;;;;;1.64;100.00;99875.28;5576723;31;34839;-70
2022/12/15 09:03:38;;;;;;;;;;;;;;;1.82;100.00;99875.56;5590228;31;34247;-70
2022/12/15 09:06:41;;;;;;;;;;;;;;;1.64;100.00;99873.50;5590084;31;34603;-69
2022/12/15 09:09:44;;;;;;;;;;;;;;;1.65;100.00;99882.97;5589970;31;34333;-69
2022/12/15 09:12:48;;;;;;;;;;;;;;;1.88;100.00;99882.91;5589459;31;34829;-68
2022/12/15 09:15:59;;;;;;;;;;;;;;;2.03;100.00;99877.25;5590325;31;34816;-69
2022/12/15 09:19:13;;;;;;;;;;;;;;;2.06;100.00;99866.56;5590296;31;34560;-69
2022/12/15 09:22:17;;;;;;;;;;;;;;;1.69;100.00;99865.28;5576573;31;34174;-70
2022/12/15 09:25:20;;;;;;;;;;;;;;;2.05;100.00;99861.44;5590092;31;34365;-69
2022/12/15 09:28:24;;;;;;;;;;;;;;;2.47;100.00;99870.94;5590142;31;34247;-70
2022/12/15 09:31:31;;;;;;;;;;;;;;;2.47;100.00;99870.94;5576532;31;34183;-69
2022/12/15 09:34:36;;;;;;;;;;;;;;;2.61;100.00;99878.47;5590098;31;34351;-69
2022/12/15 09:37:40;;;;;;;;;;;;;;;2.70;100.00;99876.06;5576065;31;34667;-69
2022/12/15 09:40:50;;;;;;;;;;;;;;;2.67;100.00;99877.13;5590255;31;34233;-69
2022/12/15 09:44:02;;;;;;;;;;;;;;;2.52;100.00;99871.37;5589900;31;35145;-68
2022/12/15 09:47:10;;;;;;;;;;;;;;;2.23;100.00;99872.19;5589845;31;34871;-69
2022/12/15 09:50:14;;;;;;;;;;;;;;;2.14;100.00;99879.81;5589894;31;34257;-69
2022/12/15 09:53:18;;;;;;;;;;;;;;;2.12;100.00;99860.81;5575976;31;35662;-68
2022/12/15 09:56:45;;;;;;;;;;;;;;;1.59;100.00;99873.03;5589794;31;34283;-70
2022/12/15 10:00:03;;;;;;;;;;;;;;;1.58;100.00;99858.28;5575650;31;34550;-68
2022/12/15 10:03:19;;;;;;;;;;;;;;;1.59;100.00;99846.06;5575422;31;32754;-70
2022/12/15 10:06:39;;;;;;;;;;;;;;;1.85;100.00;99846.53;5576055;31;34252;-71
2022/12/15 10:09:42;;;;;;;;;;;;;;;2.22;100.00;99854.81;5576149;31;33514;-71
2022/12/15 10:12:46;;;;;;;;;;;;;;;2.23;100.00;99861.72;5590061;31;34284;-69
2022/12/15 10:16:06;;;;;;;;;;;;;;;2.54;100.00;99861.63;5589572;31;34515;-70
2022/12/15 10:19:19;;;;;;;;;;;;;;;2.50;100.00;99872.50;5563005;31;32905;-69
2022/12/15 10:22:23;;;;;;;;;;;;;;;2.24;100.00;99874.66;5575198;31;35559;-70
2022/12/15 10:25:30;;;;;;;;;;;;;;;1.95;100.00;99869.22;5562751;31;35031;-70
2022/12/15 10:28:35;;;;;;;;;;;;;;;2.34;100.00;99874.72;5589173;31;34373;-70
2022/12/15 10:31:43;;;;;;;;;;;;;;;2.39;100.00;99876.00;5589416;31;34861;-70
2022/12/15 10:34:49;;;;;;;;;;;;;;;2.28;100.00;99864.75;5589398;31;34620;-71
2022/12/15 10:38:19;;;;;;;;;;;;;;;2.60;100.00;99868.16;5589658;31;34445;-70
2022/12/15 10:41:24;;;;;;;;;;;;;;;2.62;100.00;99874.91;5566161;31;34102;-70
2022/12/15 10:44:35;;;;;;;;;;;;;;;2.69;100.00;99864.75;5562337;31;35371;-69
2022/12/15 10:47:38;;;;;;;;;;;;;;;2.73;100.00;99860.06;5588983;31;34419;-71
2022/12/15 10:50:41;;;;;;;;;;;;;;;2.51;100.00;99854.03;5589180;31;33899;-69
2022/12/15 10:53:47;;;;;;;;;;;;;;;2.61;100.00;99867.19;5588967;31;34330;-71
2022/12/15 10:56:55;;;;;;;;;;;;;;;2.75;100.00;99850.31;5550218;31;34921;-69
2022/12/15 11:00:18;;;;;;;;;;;;;;;2.81;100.00;99852.41;5588903;31;34855;-71
2022/12/15 11:03:23;;;;;;;;;;;;;;;2.25;100.00;99854.56;5575218;31;34546;-70
2022/12/15 11:06:28;;;;;;;;;;;;;;;2.68;100.00;99843.91;5588715;31;34939;-71
2022/12/15 11:09:34;;;;;;;;;;;;;;;2.56;100.00;99846.63;5575333;31;34210;-70
2022/12/15 11:12:52;;;;;;;;;;;;;;;2.29;100.00;99843.69;5588856;31;34996;-71
2022/12/15 11:16:12;;;;;;;;;;;;;;;2.80;100.00;99861.22;5575531;31;34839;-70
2022/12/15 11:19:25;;;;;;;;;;;;;;;2.69;100.00;99869.16;5588382;31;34529;-70
2022/12/15 11:22:29;;;;;;;;;;;;;;;2.58;100.00;99867.44;5588494;31;34574;-70
2022/12/15 11:25:40;;;;;;;;;;;;;;;2.39;100.00;99855.06;5588360;31;34920;-70
2022/12/15 11:28:47;;;;;;;;;;;;;;;2.58;100.00;99870.06;5575009;31;34824;-69
2022/12/15 11:31:54;;;;;;;;;;;;;;;2.39;100.00;99857.69;5588208;31;34192;-69
2022/12/15 11:35:00;;;;;;;;;;;;;;;2.50;100.00;99848.94;5589374;31;34266;-70
2022/12/15 11:38:12;;;;;;;;;;;;;;;2.73;100.00;99850.41;5591100;31;34453;-71
2022/12/15 11:41:35;;;;;;;;;;;;;;;2.73;100.00;99855.66;5591068;31;34225;-70
2022/12/15 11:44:39;;;;;;;;;;;;;;;2.74;100.00;99854.72;5576703;31;34043;-70
2022/12/15 11:48:00;;;;;;;;;;;;;;;2.75;100.00;99853.75;5577019;31;35519;-71
2022/12/15 11:51:13;;;;;;;;;;;;;;;2.68;100.00;99857.00;5577253;31;34738;-70
2022/12/15 11:54:16;;;;;;;;;;;;;;;2.54;100.00;99859.00;5590822;31;34877;-70
2022/12/15 11:57:19;;;;;;;;;;;;;;;2.73;100.00;99875.78;5577152;31;34428;-71
2022/12/15 12:00:23;;;;;;;;;;;;;;;2.39;100.00;99880.41;5577250;31;34176;-70
2022/12/15 12:03:34;;;;;;;;;;;;;;;2.25;100.00;99883.34;5576743;31;34709;-70
2022/12/15 12:06:59;;;;;;;;;;;;;;;2.27;100.00;99884.88;5590667;31;34426;-70
2022/12/15 12:10:25;;;;;;;;;;;;;;;2.19;100.00;99880.28;5577036;31;34859;-70
2022/12/15 12:13:47;;;;;;;;;;;;;;;2.42;100.00;99880.16;5590985;31;34931;-70
2022/12/15 12:17:13;;;;;;;;;;;;;;;2.43;100.00;99872.16;5590493;31;34821;-70
2022/12/15 12:20:21;;;;;;;;;;;;;;;2.58;100.00;99873.50;5577179;31;33483;-70
2022/12/15 12:23:31;;;;;;;;;;;;;;;2.76;100.00;99876.34;5590596;31;35058;-70
2022/12/15 12:26:37;;;;;;;;;;;;;;;2.77;100.00;99875.38;5590556;31;34566;-71
2022/12/15 12:29:45;;;;;;;;;;;;;;;2.61;100.00;99868.00;5563748;31;35358;-70
2022/12/15 12:33:08;;;;;;;;;;;;;;;2.66;100.00;99867.62;5590690;31;34269;-70
2022/12/15 12:36:13;;;;;;;;;;;;;;;2.66;100.00;99853.72;5576889;31;34702;-69
2022/12/15 12:39:19;;;;;;;;;;;;;;;2.66;100.00;99856.31;5590499;31;34980;-70
2022/12/15 12:42:34;;;;;;;;;;;;;;;2.49;100.00;99852.50;5590288;31;34615;-70
2022/12/15 12:45:37;;;;;;;;;;;;;;;2.49;100.00;99857.75;5589492;31;34348;-70
2022/12/15 12:48:39;;;;;;;;;;;;;;;2.51;100.00;99861.91;5576575;31;34035;-70
2022/12/15 12:51:49;;;;;;;;;;;;;;;2.66;100.00;99862.41;5590340;31;34337;-70
2022/12/15 12:54:57;;;;;;;;;;;;;;;2.43;100.00;99866.09;5590207;31;34944;-70
2022/12/15 12:58:00;;;;;;;;;;;;;;;2.40;100.00;99867.19;5576580;31;34557;-70
2022/12/15 13:01:09;;;;;;;;;;;;;;;2.62;100.00;99869.66;5590192;31;34299;-69
2022/12/15 13:04:32;;;;;;;;;;;;;;;2.61;100.00;99868.00;5590322;31;34917;-71
2022/12/15 13:07:39;;;;;;;;;;;;;;;2.77;100.00;99869.31;5590392;31;34592;-71
2022/12/15 13:10:43;;;;;;;;;;;;;;;2.74;100.00;99878.28;5590099;31;34917;-70
2022/12/15 13:13:47;;;;;;;;;;;;;;;2.63;100.00;99880.97;5590322;31;34781;-70
2022/12/15 13:16:55;;;;;;;;;;;;;;;2.75;100.00;99879.94;5576171;31;36724;-70
2022/12/15 13:20:23;;;;;;;;;;;;;;;2.32;100.00;99887.97;5590207;31;34163;-70
2022/12/15 13:23:26;;;;;;;;;;;;;;;2.20;100.00;99894.19;5590185;31;34868;-70
2022/12/15 13:26:30;;;;;;;;;;;;;;;2.15;100.00;99889.34;5575950;31;34890;-70
2022/12/15 13:29:33;;;;;;;;;;;;;;;2.28;100.00;99890.94;5590019;31;34074;-70
2022/12/15 13:32:36;;;;;;;;;;;;;;;2.28;100.00;99883.06;5575847;31;35182;-70
2022/12/15 13:35:41;;;;;;;;;;;;;;;2.19;100.00;99882.88;5590094;31;34782;-71
2022/12/15 13:38:51;;;;;;;;;;;;;;;2.37;100.00;99874.47;5589994;31;34096;-70
2022/12/15 13:41:54;;;;;;;;;;;;;;;2.41;100.00;99883.75;5589917;31;34931;-70
2022/12/15 13:45:27;;;;;;;;;;;;;;;2.19;100.00;99882.88;5575871;31;35309;-70
2022/12/15 13:48:33;;;;;;;;;;;;;;;2.19;100.00;99895.13;5589739;31;34946;-70
2022/12/15 13:51:41;;;;;;;;;;;;;;;2.20;100.00;99907.28;5589921;31;34185;-70
2022/12/15 13:54:51;;;;;;;;;;;;;;;2.16;100.00;99896.25;5589892;31;34201;-72
2022/12/15 13:57:59;;;;;;;;;;;;;;;2.15;100.00;99901.59;5589362;31;34337;-71
2022/12/15 14:01:16;;;;;;;;;;;;;;;2.10;100.00;99901.13;5589644;31;34386;-71
2022/12/15 14:04:21;;;;;;;;;;;;;;;2.07;100.00;99899.63;5562799;31;33311;-71
2022/12/15 14:07:26;;;;;;;;;;;;;;;1.91;100.00;99895.75;5575919;31;34919;-71
2022/12/15 14:10:37;;;;;;;;;;;;;;;1.77;100.00;99904.72;5589720;31;34751;-71
2022/12/15 14:13:42;;;;;;;;;;;;;;;1.73;100.00;99901.50;5590021;31;34244;-71
2022/12/15 14:17:02;;;;;;;;;;;;;;;1.81;100.00;99890.44;5589581;31;34239;-72
2022/12/15 14:20:10;;;;;;;;;;;;;;;1.68;100.00;99895.81;5575656;31;34212;-72
2022/12/15 14:23:17;;;;;;;;;;;;;;;1.64;100.00;99893.59;5575670;31;34680;-73
2022/12/15 14:26:29;;;;;;;;;;;;;;;1.75;100.00;99899.59;5575187;31;35297;-71
2022/12/15 14:29:32;;;;;;;;;;;;;;;1.68;100.00;99893.22;5575171;31;34611;-72
2022/12/15 14:32:35;;;;;;;;;;;;;;;1.65;100.00;99897.84;5589332;31;34557;-72
2022/12/15 14:35:43;;;;;;;;;;;;;;;1.63;100.00;99892.75;5589155;31;34238;-72
2022/12/15 14:38:55;;;;;;;;;;;;;;;1.50;100.00;99880.78;5589236;31;35153;-72
2022/12/15 14:42:00;;;;;;;;;;;;;;;1.50;100.00;99883.41;5589054;31;34276;-72
2022/12/15 14:45:04;;;;;;;;;;;;;;;1.41;100.00;99884.94;5589075;31;34239;-72
2022/12/15 14:48:08;;;;;;;;;;;;;;;1.39;100.00;99893.87;5589651;31;34230;-73
2022/12/15 14:51:39;;;;;;;;;;;;;;;1.39;100.00;99897.31;5589124;31;34318;-73
2022/12/15 14:54:50;;;;;;;;;;;;;;;1.38;100.00;99897.44;5575279;31;32918;-73
2022/12/15 14:57:53;;;;;;;;;;;;;;;1.36;100.00;99894.91;5575312;31;34146;-73
2022/12/15 15:00:57;;;;;;;;;;;;;;;1.41;100.00;99891.94;5588939;31;34303;-72
2022/12/15 15:04:02;;;;;;;;;;;;;;;1.55;100.00;99891.72;5588491;31;34718;-73
2022/12/15 15:07:15;;;;;;;;;;;;;;;1.43;100.00;99903.13;5588392;31;34280;-73
2022/12/15 15:10:24;;;;;;;;;;;;;;;1.36;100.00;99915.00;5590049;31;34349;-73
2022/12/15 15:13:36;;;;;;;;;;;;;;;1.31;100.00;99910.13;5590752;31;34199;-73
2022/12/15 15:16:43;;;;;;;;;;;;;;;1.30;100.00;99922.41;5577102;31;35425;-72
2022/12/15 15:19:48;;;;;;;;;;;;;;;1.32;100.00;99919.63;5577068;31;34173;-72
2022/12/15 15:23:09;;;;;;;;;;;;;;;1.39;100.00;99920.00;5590776;31;34290;-74
2022/12/15 15:26:15;;;;;;;;;;;;;;;1.44;100.00;99929.16;5590765;31;34818;-73
2022/12/15 15:29:39;;;;;;;;;;;;;;;1.46;100.00;99922.00;5576764;31;32700;-73
2022/12/15 15:32:49;;;;;;;;;;;;;;;1.44;100.00;99900.41;5576384;31;35378;-73
2022/12/15 15:35:56;;;;;;;;;;;;;;;1.46;100.00;99908.94;5576972;31;34408;-73
2022/12/15 15:39:04;;;;;;;;;;;;;;;1.42;100.00;99909.28;5576627;31;34697;-73
2022/12/15 15:42:14;;;;;;;;;;;;;;;1.32;100.00;99893.50;5577103;31;34907;-74
2022/12/15 15:45:18;;;;;;;;;;;;;;;1.44;100.00;99900.41;5590361;31;34781;-74
2022/12/15 15:48:25;;;;;;;;;;;;;;;1.36;100.00;99894.09;5563465;31;34828;-73
2022/12/15 15:51:32;;;;;;;;;;;;;;;1.39;100.00;99880.78;5590899;31;34752;-74
2022/12/15 15:54:36;;;;;;;;;;;;;;;1.36;100.00;99881.03;5564006;31;34241;-74
2022/12/15 15:57:40;;;;;;;;;;;;;;;1.32;100.00;99888.28;5590672;31;34337;-74
2022/12/15 16:00:44;;;;;;;;;;;;;;;1.34;100.00;99885.56;5590708;31;34939;-74
2022/12/15 16:03:50;;;;;;;;;;;;;;;1.42;100.00;99888.38;5590624;31;34964;-74
2022/12/15 16:06:55;;;;;;;;;;;;;;;1.41;100.00;99891.94;5576497;31;34278;-74
2022/12/15 16:10:02;;;;;;;;;;;;;;;1.46;100.00;99874.13;5590659;31;34170;-74
2022/12/15 16:13:08;;;;;;;;;;;;;;;1.41;100.00;99874.47;5590560;31;34924;-75
2022/12/15 16:16:20;;;;;;;;;;;;;;;1.36;100.00;99886.25;5590660;31;34325;-73
2022/12/15 16:19:28;;;;;;;;;;;;;;;1.39;100.00;99888.63;5576773;31;35315;-74
2022/12/15 16:22:43;;;;;;;;;;;;;;;1.49;100.00;99881.72;5590166;31;34768;-73
2022/12/15 16:25:52;;;;;;;;;;;;;;;1.46;100.00;99895.84;5576278;31;34602;-73
2022/12/15 16:28:58;;;;;;;;;;;;;;;1.42;100.00;99904.91;5590482;31;34850;-74
2022/12/15 16:32:06;;;;;;;;;;;;;;;1.52;100.00;99894.53;5577225;31;34916;-74
2022/12/15 16:35:12;;;;;;;;;;;;;;;1.42;100.00;99886.59;5577182;31;34232;-73
2022/12/15 16:38:16;;;;;;;;;;;;;;;1.39;100.00;99891.25;5590508;31;34265;-73
2022/12/15 16:41:26;;;;;;;;;;;;;;;1.34;100.00;99896.00;5590497;31;34316;-73
2022/12/15 16:44:32;;;;;;;;;;;;;;;1.39;100.00;99904.31;5590428;31;34225;-73
2022/12/15 16:47:41;;;;;;;;;;;;;;;1.40;100.00;99909.44;5576613;31;33765;-73
2022/12/15 16:50:57;;;;;;;;;;;;;;;1.37;100.00;99908.81;5576682;31;34092;-74
2022/12/15 16:54:02;;;;;;;;;;;;;;;1.35;100.00;99898.50;5590243;31;34218;-72
2022/12/15 16:57:10;;;;;;;;;;;;;;;1.43;100.00;99903.13;5576345;31;32807;-72
2022/12/15 17:00:16;;;;;;;;;;;;;;;1.31;100.00;99916.19;5577050;31;33650;-72
2022/12/15 17:03:24;;;;;;;;;;;;;;;1.21;100.00;99924.91;5590386;31;33745;-73
2022/12/15 17:06:34;;;;;;;;;;;;;;;1.21;100.00;99925.69;5575409;31;35388;-73
2022/12/15 17:09:40;;;;;;;;;;;;;;;1.20;100.00;99921.44;5575978;31;33121;-73
2022/12/15 17:12:47;;;;;;;;;;;;;;;1.18;100.00;99927.72;5590092;31;34280;-72
2022/12/15 17:15:54;;;;;;;;;;;;;;;1.13;100.00;99933.31;5590328;31;34502;-73
2022/12/15 17:19:00;;;;;;;;;;;;;;;1.08;100.00;99938.06;5576092;31;33577;-73
2022/12/15 17:22:07;;;;;;;;;;;;;;;1.09;100.00;99936.28;5576011;31;34033;-73
2022/12/15 17:25:16;;;;;;;;;;;;;;;1.12;100.00;99930.81;5590487;31;34869;-73
2022/12/15 17:28:31;;;;;;;;;;;;;;;1.17;100.00;99931.28;5590583;31;34671;-73
2022/12/15 17:31:38;;;;;;;;;;;;;;;1.17;100.00;99928.66;5589808;31;34266;-75
2022/12/15 17:34:43;;;;;;;;;;;;;;;1.06;100.00;99929.53;5589951;31;34622;-74
2022/12/15 17:37:50;;;;;;;;;;;;;;;0.96;100.00;99936.41;5590024;31;34546;-75
2022/12/15 17:40:56;;;;;;;;;;;;;;;0.96;100.00;99932.97;5576330;31;34291;-73
2022/12/15 17:44:01;;;;;;;;;;;;;;;0.97;100.00;99926.78;5590228;31;34643;-74
2022/12/15 17:47:27;;;;;;;;;;;;;;;0.99;100.00;99923.09;5590018;31;34344;-74
2022/12/15 17:50:34;;;;;;;;;;;;;;;1.02;100.00;99929.84;5590512;31;34257;-74
2022/12/15 17:53:40;;;;;;;;;;;;;;;1.00;100.00;99937.00;5590333;31;33775;-74
2022/12/15 17:56:47;;;;;;;;;;;;;;;1.05;100.00;99921.81;5590116;31;34508;-74
2022/12/15 17:59:54;;;;;;;;;;;;;;;1.04;100.00;99923.56;5576167;31;33448;-73
2022/12/15 18:03:02;;;;;;;;;;;;;;;0.95;100.00;99924.28;5575920;31;34843;-73
2022/12/15 18:06:12;;;;;;;;;;;;;;;0.96;100.00;99919.91;5589499;31;34381;-74
2022/12/15 18:09:21;;;;;;;;;;;;;;;0.98;100.00;99926.66;5589977;31;34479;-74
2022/12/15 18:12:27;;;;;;;;;;;;;;;1.01;100.00;99910.75;5575862;31;34591;-74
2022/12/15 18:15:35;;;;;;;;;;;;;;;1.04;100.00;99915.75;5589984;31;34924;-74
2022/12/15 18:18:45;;;;;;;;;;;;;;;1.06;100.00;99913.03;5589623;31;34800;-74
2022/12/15 18:21:53;;;;;;;;;;;;;;;0.98;100.00;99916.22;5575535;31;32738;-73
2022/12/15 18:25:03;;;;;;;;;;;;;;;0.93;100.00;99910.50;5589592;31;34711;-74
2022/12/15 18:28:17;;;;;;;;;;;;;;;0.95;100.00;99919.06;5589435;31;34974;-74
2022/12/15 18:31:29;;;;;;;;;;;;;;;1.03;100.00;99910.63;5589532;31;35001;-74
2022/12/15 18:34:37;;;;;;;;;;;;;;;1.12;100.00;99910.75;5575255;31;34749;-75